createdAt,value
2022-09-14T00:01:45.750Z,13.55
2022-09-14T00:04:16.501Z,13.54
2022-09-14T00:06:45.627Z,13.52
2022-09-14T00:09:18.691Z,13.49
2022-09-14T00:11:49.499Z,13.45
2022-09-14T00:14:19.289Z,13.38
2022-09-14T00:16:48.174Z,13.39
2022-09-14T00:19:20.228Z,13.34
2022-09-14T00:21:52.380Z,13.31
2022-09-14T00:24:20.981Z,13.26
2022-09-14T00:26:51.086Z,13.23
2022-09-14T00:29:20.906Z,13.18
2022-09-14T00:31:49.331Z,13.19
2022-09-14T00:34:18.577Z,13.16
2022-09-14T00:36:49.729Z,13.15
2022-09-14T00:39:19.550Z,13.14
2022-09-14T00:41:51.551Z,13.21
2022-09-14T00:45:02.655Z,13.19
2022-09-14T00:47:34.297Z,13.20
2022-09-14T00:50:07.325Z,13.22
2022-09-14T00:52:38.834Z,13.20
2022-09-14T00:55:11.005Z,13.10
2022-09-14T00:57:44.997Z,13.06
2022-09-14T01:00:15.505Z,13.01
2022-09-14T01:02:44.080Z,12.98
2022-09-14T01:05:14.774Z,12.88
2022-09-14T01:08:14.942Z,12.80
2022-09-14T01:11:04.694Z,12.71
2022-09-14T01:13:43.301Z,12.67
2022-09-14T01:16:22.538Z,12.66
2022-09-14T01:18:56.841Z,12.56
2022-09-14T01:21:29.095Z,12.50
2022-09-14T01:24:03.873Z,12.44
2022-09-14T01:27:26.092Z,12.43
2022-09-14T01:30:04.449Z,12.35
2022-09-14T01:32:38.281Z,12.36
2022-09-14T01:35:16.115Z,12.33
2022-09-14T01:37:48.897Z,12.35
2022-09-14T01:40:22.601Z,12.29
2022-09-14T01:42:56.851Z,12.25
2022-09-14T01:45:29.752Z,12.17
2022-09-14T01:48:03.250Z,12.13
2022-09-14T01:50:37.354Z,12.08
2022-09-14T01:53:11.150Z,12.04
2022-09-14T01:55:45.573Z,12.05
2022-09-14T01:58:23.119Z,12.03
2022-09-14T02:00:57.539Z,11.95
2022-09-14T02:03:31.613Z,11.89
2022-09-14T02:06:07.029Z,11.85
2022-09-14T02:08:36.483Z,11.84
2022-09-14T02:11:05.221Z,11.84
2022-09-14T02:13:34.037Z,11.77
2022-09-14T02:16:04.345Z,11.76
2022-09-14T02:18:33.306Z,11.65
2022-09-14T02:21:05.468Z,11.58
2022-09-14T02:23:36.380Z,11.55
2022-09-14T02:26:05.691Z,11.52
2022-09-14T02:28:34.585Z,11.53
2022-09-14T02:31:16.224Z,11.55
2022-09-14T02:33:54.692Z,11.53
2022-09-14T02:36:29.864Z,11.51
2022-09-14T02:39:04.389Z,11.48
2022-09-14T02:41:42.559Z,11.45
2022-09-14T02:44:19.732Z,11.43
2022-09-14T02:46:57.275Z,11.39
2022-09-14T02:49:31.719Z,11.38
2022-09-14T02:52:13.089Z,11.33
2022-09-14T02:54:48.150Z,11.25
2022-09-14T02:57:17.739Z,11.22
2022-09-14T02:59:46.579Z,11.16
2022-09-14T03:02:16.670Z,11.15
2022-09-14T03:04:45.203Z,11.17
2022-09-14T03:07:13.644Z,11.11
2022-09-14T03:09:42.152Z,11.02
2022-09-14T03:12:10.670Z,11.00
2022-09-14T03:14:39.363Z,10.99
2022-09-14T03:17:08.190Z,10.96
2022-09-14T03:19:38.304Z,10.94
2022-09-14T03:22:06.621Z,10.96
2022-09-14T03:24:35.291Z,10.93
2022-09-14T03:27:03.585Z,10.94
2022-09-14T03:29:31.824Z,11.00
2022-09-14T03:32:00.305Z,11.08
2022-09-14T03:34:28.957Z,11.13
2022-09-14T03:36:59.063Z,11.22
2022-09-14T03:39:28.974Z,11.28
2022-09-14T03:41:57.560Z,11.38
2022-09-14T03:44:26.379Z,11.45
2022-09-14T03:46:55.073Z,11.41
2022-09-14T03:49:23.673Z,11.41
2022-09-14T03:51:55.327Z,11.52
2022-09-14T03:54:29.904Z,11.61
2022-09-14T03:56:58.728Z,11.58
2022-09-14T03:59:27.385Z,11.52
2022-09-14T04:01:55.909Z,11.52
2022-09-14T04:04:24.430Z,11.52
2022-09-14T04:06:52.848Z,11.40
2022-09-14T04:09:21.267Z,11.44
2022-09-14T04:11:51.155Z,11.53
2022-09-14T04:14:19.761Z,11.62
2022-09-14T04:16:48.888Z,11.57
2022-09-14T04:19:17.613Z,11.47
2022-09-14T04:21:46.085Z,11.52
2022-09-14T04:24:16.109Z,11.62
2022-09-14T04:26:45.878Z,11.53
2022-09-14T04:29:16.237Z,11.40
2022-09-14T04:31:45.076Z,11.40
2022-09-14T04:34:14.848Z,11.34
2022-09-14T04:36:43.814Z,11.29
2022-09-14T04:39:15.377Z,11.28
2022-09-14T04:41:44.043Z,11.27
2022-09-14T04:44:13.117Z,11.28
2022-09-14T04:46:46.906Z,11.24
2022-09-14T04:49:16.975Z,11.18
2022-09-14T04:51:46.008Z,11.19
2022-09-14T04:54:18.350Z,11.22
2022-09-14T04:56:47.550Z,11.21
2022-09-14T04:59:16.768Z,11.24
2022-09-14T05:01:48.825Z,11.17
2022-09-14T05:04:18.356Z,11.16
2022-09-14T05:06:46.839Z,11.28
2022-09-14T05:09:17.505Z,11.31
2022-09-14T05:11:47.549Z,11.26
2022-09-14T05:14:16.689Z,11.26
2022-09-14T05:16:48.290Z,11.30
2022-09-14T05:19:19.134Z,11.33
2022-09-14T05:21:48.128Z,11.36
2022-09-14T05:24:18.926Z,11.37
2022-09-14T05:26:48.163Z,11.33
2022-09-14T05:29:18.454Z,11.41
2022-09-14T05:31:48.891Z,11.43
2022-09-14T05:34:17.751Z,11.41
2022-09-14T05:36:46.349Z,11.45
2022-09-14T05:39:16.193Z,11.44
2022-09-14T05:41:47.362Z,11.48
2022-09-14T05:44:15.934Z,11.51
2022-09-14T05:46:44.581Z,11.49
2022-09-14T05:49:14.725Z,11.49
2022-09-14T05:51:43.349Z,11.44
2022-09-14T05:54:12.397Z,11.44
2022-09-14T05:56:41.011Z,11.43
2022-09-14T05:59:11.107Z,11.42
2022-09-14T06:01:39.858Z,11.51
2022-09-14T06:04:08.684Z,11.50
2022-09-14T06:06:38.794Z,11.53
2022-09-14T06:09:07.229Z,11.59
2022-09-14T06:11:37.770Z,11.61
2022-09-14T06:14:06.944Z,11.61
2022-09-14T06:16:36.547Z,11.65
2022-09-14T06:19:05.774Z,11.67
2022-09-14T06:21:37.144Z,11.73
2022-09-14T06:24:10.427Z,11.77
2022-09-14T06:26:43.958Z,11.78
2022-09-14T06:29:13.176Z,11.85
2022-09-14T06:31:43.846Z,11.86
2022-09-14T06:34:12.449Z,11.88
2022-09-14T06:36:41.083Z,11.91
2022-09-14T06:39:11.199Z,11.90
2022-09-14T06:41:39.455Z,11.93
2022-09-14T06:44:07.980Z,11.96
2022-09-14T06:46:37.372Z,11.90
2022-09-14T06:49:08.546Z,11.92
2022-09-14T06:51:38.792Z,11.93
2022-09-14T06:54:09.671Z,11.90
2022-09-14T06:56:41.552Z,11.99
2022-09-14T06:59:11.929Z,11.96
2022-09-14T07:01:41.237Z,11.97
2022-09-14T07:04:10.660Z,11.97
2022-09-14T07:06:43.080Z,11.90
2022-09-14T07:09:12.151Z,11.90
2022-09-14T07:11:43.055Z,11.95
2022-09-14T07:14:21.261Z,11.93
2022-09-14T07:17:15.357Z,11.93
2022-09-14T07:19:45.079Z,11.95
2022-09-14T07:22:25.002Z,11.99
2022-09-14T07:25:03.515Z,12.05
2022-09-14T07:27:56.826Z,12.10
2022-09-14T07:30:28.288Z,12.15
2022-09-14T07:33:02.394Z,12.20
2022-09-14T07:36:06.398Z,12.25
2022-09-14T07:38:53.467Z,12.24
2022-09-14T07:41:28.147Z,12.17
2022-09-14T07:44:16.627Z,12.17
2022-09-14T07:46:56.669Z,12.13
2022-09-14T07:49:26.680Z,12.14
2022-09-14T07:52:14.307Z,12.21
2022-09-14T07:54:45.090Z,12.24
2022-09-14T07:57:52.121Z,12.26
2022-09-14T08:00:21.734Z,12.33
2022-09-14T08:03:31.713Z,12.25
2022-09-14T08:06:14.170Z,12.30
2022-09-14T08:08:44.461Z,12.33
2022-09-14T08:11:19.969Z,12.35
2022-09-14T08:13:52.343Z,12.38
2022-09-14T08:16:26.261Z,12.48
2022-09-14T08:18:57.250Z,12.47
2022-09-14T08:21:30.471Z,12.56
2022-09-14T08:23:59.344Z,12.63
2022-09-14T08:26:37.826Z,12.69
2022-09-14T08:29:08.244Z,12.80
2022-09-14T08:31:47.477Z,12.89
2022-09-14T08:34:17.957Z,13.04
2022-09-14T08:36:51.897Z,13.21
2022-09-14T08:39:20.884Z,13.11
2022-09-14T08:42:15.304Z,13.13
2022-09-14T08:44:50.501Z,13.03
2022-09-14T08:47:28.236Z,13.01
2022-09-14T08:50:02.913Z,13.03
2022-09-14T08:52:37.900Z,12.94
2022-09-14T08:55:24.948Z,12.84
2022-09-14T08:58:05.451Z,12.80
2022-09-14T09:00:41.448Z,12.77
2022-09-14T09:03:34.825Z,12.77
2022-09-14T09:06:18.166Z,12.98
2022-09-14T09:09:10.417Z,13.18
2022-09-14T09:11:50.941Z,13.27
2022-09-14T09:14:34.754Z,13.29
2022-09-14T09:17:21.693Z,13.24
2022-09-14T09:20:05.550Z,13.24
2022-09-14T09:22:59.219Z,13.11
2022-09-14T09:25:33.065Z,13.32
2022-09-14T09:28:12.450Z,13.34
2022-09-14T09:30:41.700Z,13.35
2022-09-14T09:34:04.201Z,13.51
2022-09-14T09:36:42.369Z,13.64
2022-09-14T09:39:13.905Z,13.77
2022-09-14T09:41:48.306Z,13.82
2022-09-14T09:44:27.687Z,13.81
2022-09-14T09:46:58.472Z,13.64
2022-09-14T09:49:30.536Z,13.79
2022-09-14T09:52:23.759Z,13.71
2022-09-14T09:55:02.258Z,13.73
2022-09-14T09:57:50.933Z,13.89
2022-09-14T10:00:26.414Z,14.21
2022-09-14T10:03:27.860Z,14.39
2022-09-14T10:06:06.478Z,14.47
2022-09-14T10:08:46.162Z,14.40
2022-09-14T10:15:15.652Z,14.38
2022-09-14T10:18:10.506Z,14.31
2022-09-14T10:21:03.375Z,14.26
2022-09-14T10:23:36.500Z,14.25
2022-09-14T10:26:28.884Z,14.34
2022-09-14T10:29:35.588Z,14.23
2022-09-14T10:32:20.946Z,14.34
2022-09-14T10:34:54.594Z,14.28
2022-09-14T10:37:45.088Z,14.12
2022-09-14T10:40:19.944Z,14.23
2022-09-14T10:43:18.163Z,14.33
2022-09-14T10:46:00.163Z,14.44
2022-09-14T10:48:47.043Z,14.55
2022-09-14T10:51:31.690Z,14.57
2022-09-14T10:54:13.892Z,14.56
2022-09-14T10:57:10.708Z,14.45
2022-09-14T10:59:46.656Z,14.41
2022-09-14T11:02:43.953Z,14.51
2022-09-14T11:05:21.958Z,14.54
2022-09-14T11:08:17.877Z,14.47
2022-09-14T11:11:19.624Z,14.43
2022-09-14T11:13:59.828Z,14.44
2022-09-14T11:17:08.596Z,14.38
2022-09-14T11:19:46.324Z,14.48
2022-09-14T11:22:27.582Z,14.59
2022-09-14T11:25:20.770Z,14.67
2022-09-14T11:27:55.204Z,14.76
2022-09-14T11:30:39.789Z,14.84
2022-09-14T11:33:33.380Z,14.97
2022-09-14T11:36:05.420Z,15.04
2022-09-14T11:38:45.105Z,14.99
2022-09-14T11:41:21.559Z,15.06
2022-09-14T11:43:59.893Z,14.96
2022-09-14T11:46:34.674Z,15.13
2022-09-14T11:49:16.993Z,14.98
2022-09-14T11:51:53.446Z,15.15
2022-09-14T11:54:25.403Z,15.35
2022-09-14T11:56:58.648Z,15.52
2022-09-14T11:59:51.024Z,15.84
2022-09-14T12:02:49.560Z,15.86
2022-09-14T12:05:36.917Z,15.61
2022-09-14T12:08:28.172Z,15.60
2022-09-14T12:11:28.992Z,15.49
2022-09-14T12:14:31.793Z,15.39
2022-09-14T12:17:28.587Z,15.32
2022-09-14T12:20:00.925Z,15.34
2022-09-14T12:22:34.972Z,15.41
2022-09-14T12:25:06.787Z,15.49
2022-09-14T12:27:39.260Z,15.70
2022-09-14T12:30:41.346Z,15.65
2022-09-14T12:33:44.429Z,15.58
2022-09-14T12:36:34.010Z,15.57
2022-09-14T12:39:23.420Z,15.51
2022-09-14T12:42:30.316Z,15.50
2022-09-14T12:45:55.967Z,15.35
2022-09-14T12:59:08.510Z,15.61
2022-09-14T13:05:35.489Z,15.80
2022-09-14T13:08:15.784Z,15.82
2022-09-14T13:10:48.818Z,15.74
2022-09-14T13:13:20.019Z,15.83
2022-09-14T13:15:59.305Z,15.85
2022-09-14T13:18:34.200Z,15.81
2022-09-14T13:21:20.476Z,15.89
2022-09-14T13:23:50.115Z,15.94
2022-09-14T13:26:22.014Z,16.00
2022-09-14T13:28:53.480Z,16.15
2022-09-14T13:31:30.837Z,16.24
2022-09-14T13:34:00.972Z,16.23
2022-09-14T13:36:33.461Z,16.20
2022-09-14T13:39:05.557Z,16.26
2022-09-14T13:41:35.052Z,16.59
2022-09-14T13:44:04.021Z,16.60
2022-09-14T13:46:32.638Z,16.52
2022-09-14T13:49:02.233Z,16.76
2022-09-14T13:51:32.914Z,16.78
2022-09-14T13:54:19.822Z,16.79
2022-09-14T13:57:13.358Z,16.83
2022-09-14T14:00:09.114Z,16.99
2022-09-14T14:02:41.883Z,17.15
2022-09-14T14:05:24.090Z,17.26
2022-09-14T14:07:55.507Z,17.37
2022-09-14T14:10:29.179Z,17.16
2022-09-14T14:12:57.729Z,17.31
2022-09-14T14:15:44.772Z,16.91
2022-09-14T14:18:42.711Z,16.98
2022-09-14T14:21:18.513Z,16.87
2022-09-14T14:24:09.562Z,16.74
2022-09-14T14:26:39.480Z,16.76
2022-09-14T14:29:12.198Z,16.98
2022-09-14T14:31:40.986Z,17.77
2022-09-14T14:34:19.292Z,17.52
2022-09-14T14:36:50.287Z,17.40
2022-09-14T14:39:22.937Z,17.23
2022-09-14T14:41:55.237Z,17.10
2022-09-14T14:44:26.557Z,17.13
2022-09-14T14:46:55.291Z,16.92
2022-09-14T14:49:24.103Z,17.04
2022-09-14T14:51:55.399Z,17.02
2022-09-14T14:54:29.237Z,16.99
2022-09-14T14:57:05.330Z,17.05
2022-09-14T14:59:37.400Z,16.92
2022-09-14T15:02:07.455Z,16.97
2022-09-14T15:04:36.466Z,16.97
2022-09-14T15:07:37.504Z,17.02
2022-09-14T15:10:15.616Z,16.81
2022-09-14T15:12:44.863Z,16.87
2022-09-14T15:15:16.102Z,16.99
2022-09-14T15:17:47.065Z,17.02
2022-09-14T15:20:15.932Z,16.83
2022-09-14T15:22:56.761Z,16.83
2022-09-14T15:25:28.830Z,16.66
2022-09-14T15:27:57.409Z,16.56
2022-09-14T15:30:48.533Z,16.56
2022-09-14T15:33:22.952Z,16.66
2022-09-14T15:35:57.591Z,16.62
2022-09-14T15:38:40.825Z,16.68
2022-09-14T15:41:14.503Z,16.80
2022-09-14T15:43:45.752Z,16.75
2022-09-14T15:46:20.003Z,16.70
2022-09-14T15:48:49.247Z,16.79
2022-09-14T15:51:20.171Z,16.77
2022-09-14T15:53:57.433Z,16.64
2022-09-14T15:56:27.442Z,16.67
2022-09-14T15:58:58.692Z,16.63
2022-09-14T16:01:33.579Z,16.67
2022-09-14T16:04:03.837Z,16.79
2022-09-14T16:06:33.908Z,16.79
2022-09-14T16:09:02.978Z,16.80
2022-09-14T16:11:33.114Z,16.77
2022-09-14T16:14:03.248Z,16.73
2022-09-14T16:16:34.577Z,16.72
2022-09-14T16:19:06.153Z,16.67
2022-09-14T16:21:35.320Z,16.64
2022-09-14T16:24:09.174Z,16.65
2022-09-14T16:26:40.763Z,16.59
2022-09-14T16:29:27.761Z,16.48
2022-09-14T16:32:02.745Z,16.52
2022-09-14T16:34:42.678Z,16.59
2022-09-14T16:37:15.451Z,16.55
2022-09-14T16:39:44.524Z,16.61
2022-09-14T16:42:14.379Z,16.57
2022-09-14T16:44:58.731Z,16.50
2022-09-14T16:47:30.040Z,16.47
2022-09-14T16:50:00.042Z,16.37
2022-09-14T16:52:34.750Z,16.45
2022-09-14T16:55:03.638Z,16.37
2022-09-14T16:57:33.788Z,16.43
2022-09-14T17:00:02.300Z,16.43
2022-09-14T17:02:30.767Z,16.41
2022-09-14T17:04:59.665Z,16.35
2022-09-14T17:07:28.786Z,16.40
2022-09-14T17:09:57.801Z,16.36
2022-09-14T17:12:27.065Z,16.37
2022-09-14T17:14:57.438Z,16.26
2022-09-14T17:17:26.099Z,16.12
2022-09-14T17:19:54.646Z,16.07
2022-09-14T17:22:22.848Z,16.07
2022-09-14T17:24:51.499Z,15.99
2022-09-14T17:27:20.312Z,15.94
2022-09-14T17:29:49.059Z,15.89
2022-09-14T17:32:18.889Z,15.86
2022-09-14T17:34:47.329Z,15.86
2022-09-14T17:37:16.014Z,15.88
2022-09-14T17:39:45.086Z,15.78
2022-09-14T17:42:13.720Z,15.70
2022-09-14T17:44:42.084Z,15.71
2022-09-14T17:47:10.670Z,15.69
2022-09-14T17:49:40.709Z,15.65
2022-09-14T17:52:09.156Z,15.62
2022-09-14T17:54:37.568Z,15.58
2022-09-14T17:57:08.229Z,15.56
2022-09-14T17:59:36.698Z,15.56
2022-09-14T18:02:05.183Z,15.54
2022-09-14T18:04:33.777Z,15.54
2022-09-14T18:07:09.646Z,15.52
2022-09-14T18:09:38.068Z,15.48
2022-09-14T18:12:10.424Z,15.46
2022-09-14T18:14:38.957Z,15.41
2022-09-14T18:17:07.182Z,15.36
2022-09-14T18:19:35.598Z,15.35
2022-09-14T18:22:06.100Z,15.34
2022-09-14T18:24:34.554Z,15.24
2022-09-14T18:27:03.371Z,15.22
2022-09-14T18:29:45.498Z,15.16
2022-09-14T18:32:13.739Z,15.15
2022-09-14T18:34:42.415Z,15.16
2022-09-14T18:37:12.482Z,15.10
2022-09-14T18:39:41.816Z,15.07
2022-09-14T18:42:10.213Z,15.09
2022-09-14T18:44:39.268Z,15.08
2022-09-14T18:47:08.038Z,15.06
2022-09-14T18:49:36.516Z,15.04
2022-09-14T18:52:05.636Z,14.99
2022-09-14T18:54:35.692Z,14.98
2022-09-14T18:57:04.052Z,14.97
2022-09-14T18:59:32.599Z,14.95
2022-09-14T19:02:01.853Z,14.95
2022-09-14T19:04:30.886Z,14.94
2022-09-14T19:07:00.256Z,14.92
2022-09-14T19:09:34.655Z,14.90
2022-09-14T19:12:04.927Z,14.87
2022-09-14T19:14:33.341Z,14.86
2022-09-14T19:17:01.896Z,14.84
2022-09-14T19:19:30.313Z,14.75
2022-09-14T19:21:59.445Z,14.69
2022-09-14T19:24:31.082Z,14.62
2022-09-14T19:26:59.622Z,14.56
2022-09-14T19:29:32.223Z,14.54
2022-09-14T19:32:01.173Z,14.48
2022-09-14T19:34:30.566Z,14.41
2022-09-14T19:36:58.874Z,14.34
2022-09-14T19:39:28.122Z,14.30
2022-09-14T19:41:56.985Z,14.25
2022-09-14T19:44:25.982Z,14.17
2022-09-14T19:46:56.513Z,14.13
2022-09-14T19:49:28.260Z,14.08
2022-09-14T19:51:56.733Z,14.04
2022-09-14T19:54:27.340Z,13.99
2022-09-14T19:56:56.124Z,13.97
2022-09-14T19:59:24.933Z,13.96
2022-09-14T20:01:53.706Z,13.93
2022-09-14T20:04:24.113Z,13.90
2022-09-14T20:06:53.306Z,13.84
2022-09-14T20:09:23.939Z,13.77
2022-09-14T20:11:55.794Z,13.73
2022-09-14T20:14:25.900Z,13.71
2022-09-14T20:16:56.856Z,13.66
2022-09-14T20:19:28.384Z,13.63
2022-09-14T20:21:57.669Z,13.59
2022-09-14T20:24:27.547Z,13.58
2022-09-14T20:26:59.036Z,13.58
2022-09-14T20:29:30.812Z,13.57
2022-09-14T20:31:59.649Z,13.57
2022-09-14T20:34:30.210Z,13.57
2022-09-14T20:37:00.879Z,13.60
2022-09-14T20:39:29.799Z,13.63
2022-09-14T20:41:58.149Z,13.54
2022-09-14T20:44:26.669Z,13.56
2022-09-14T20:46:55.209Z,13.58
2022-09-14T20:49:24.879Z,13.58
2022-09-14T20:51:56.815Z,13.59
2022-09-14T20:54:25.730Z,13.61
2022-09-14T20:56:54.516Z,13.61
2022-09-14T20:59:24.060Z,13.64
2022-09-14T21:01:54.408Z,13.66
2022-09-14T21:04:24.153Z,13.67
2022-09-14T21:06:56.628Z,13.64
2022-09-14T21:09:27.451Z,13.67
2022-09-14T21:11:56.601Z,13.69
2022-09-14T21:14:25.374Z,13.80
2022-09-14T21:16:57.241Z,13.79
2022-09-14T21:19:28.363Z,13.81
2022-09-14T21:21:58.987Z,13.76
2022-09-14T21:24:27.605Z,13.73
2022-09-14T21:26:58.826Z,13.78
2022-09-14T21:29:27.971Z,13.76
2022-09-14T21:31:56.559Z,13.73
2022-09-14T21:34:26.214Z,13.73
2022-09-14T21:36:55.149Z,13.71
2022-09-14T21:39:27.249Z,13.69
2022-09-14T21:41:59.771Z,13.71
2022-09-14T21:44:32.380Z,13.65
2022-09-14T21:47:03.119Z,13.68
2022-09-14T21:49:33.088Z,13.70
2022-09-14T21:52:02.005Z,13.71
2022-09-14T21:54:36.029Z,13.71
2022-09-14T21:57:04.784Z,13.66
2022-09-14T21:59:33.377Z,13.71
2022-09-14T22:02:02.181Z,13.73
2022-09-14T22:04:30.796Z,13.70
2022-09-14T22:06:59.628Z,13.65
2022-09-14T22:09:30.374Z,13.55
2022-09-14T22:12:00.221Z,13.50
2022-09-14T22:14:31.535Z,13.40
2022-09-14T22:17:03.340Z,13.38
2022-09-14T22:19:33.182Z,13.36
2022-09-14T22:22:02.942Z,13.37
2022-09-14T22:24:37.357Z,13.38
2022-09-14T22:27:09.277Z,13.35
2022-09-14T22:29:40.911Z,13.35
2022-09-14T22:32:11.290Z,13.33
2022-09-14T22:34:43.895Z,13.35
2022-09-14T22:37:16.245Z,13.37
2022-09-14T22:39:45.086Z,13.40
2022-09-14T22:42:15.901Z,13.39
2022-09-14T22:44:45.530Z,13.39
2022-09-14T22:47:14.300Z,13.41
2022-09-14T22:49:42.763Z,13.42
2022-09-14T22:52:11.402Z,13.43
2022-09-14T22:54:40.695Z,13.40
2022-09-14T22:57:09.142Z,13.42
2022-09-14T22:59:39.417Z,13.37
2022-09-14T23:02:08.136Z,13.28
2022-09-14T23:04:36.637Z,13.27
2022-09-14T23:07:08.662Z,13.21
2022-09-14T23:09:39.519Z,13.21
2022-09-14T23:12:08.397Z,13.21
2022-09-14T23:14:36.698Z,13.22
2022-09-14T23:17:06.588Z,13.16
2022-09-14T23:19:35.991Z,13.12
2022-09-14T23:22:05.145Z,13.06
2022-09-14T23:24:33.571Z,12.98
2022-09-14T23:27:01.884Z,13.00
2022-09-14T23:29:30.384Z,12.97
2022-09-14T23:31:59.025Z,12.98
2022-09-14T23:34:29.409Z,12.98
2022-09-14T23:36:58.663Z,12.95
2022-09-14T23:39:27.112Z,12.95
2022-09-14T23:41:55.614Z,12.98
2022-09-14T23:44:24.500Z,13.05
2022-09-14T23:46:53.135Z,13.05
2022-09-14T23:49:21.419Z,13.02
2022-09-14T23:51:51.544Z,13.02
2022-09-14T23:54:20.079Z,13.02
2022-09-14T23:56:48.680Z,13.03
2022-09-14T23:59:18.763Z,13.07
